Time;durP1;ratioP1;P1;durP2;ratioP2;P2;SDS_P1;SDS_P2;PMS_P1;PMS_P2;Temp;Humidity;BMP_temperature;BMP_pressure;BME280_temperature;BME280_humidity;BME280_pressure;Samples;Min_cycle;Max_cycle;Signal;HPM_P1;HPM_P2
2022/09/21 00:00:27;;;;;;;;;;;;;;;15.71;43.93;99118.91;5072044;28;19916;-51
2022/09/21 00:02:56;;;;;;;;;;;;;;;15.71;44.00;99118.91;5072001;28;20398;-51
2022/09/21 00:05:22;;;;;;;;;;;;;;;15.69;43.93;99120.16;5071954;28;19938;-51
2022/09/21 00:07:47;;;;;;;;;;;;;;;15.72;43.84;99125.03;5053881;28;20457;-51
2022/09/21 00:10:13;;;;;;;;;;;;;;;15.81;44.50;99120.25;5071843;28;20011;-51
2022/09/21 00:12:39;;;;;;;;;;;;;;;16.02;44.70;99127.72;5071950;28;19916;-52
2022/09/21 00:15:06;;;;;;;;;;;;;;;16.30;44.16;99123.66;5071897;28;20047;-51
2022/09/21 00:17:32;;;;;;;;;;;;;;;16.40;43.95;99118.63;5071875;28;19920;-51
2022/09/21 00:19:57;;;;;;;;;;;;;;;16.38;43.67;99110.09;5075419;28;19916;-51
2022/09/21 00:22:23;;;;;;;;;;;;;;;16.32;44.26;99114.44;5057744;28;19916;-51
2022/09/21 00:24:48;;;;;;;;;;;;;;;16.36;44.28;99112.97;5075708;28;20441;-51
2022/09/21 00:27:13;;;;;;;;;;;;;;;16.46;44.92;99103.63;5057555;28;19924;-51
2022/09/21 00:29:39;;;;;;;;;;;;;;;16.43;44.12;99107.53;5075659;28;19923;-51
2022/09/21 00:32:04;;;;;;;;;;;;;;;16.23;44.24;99104.41;5075338;28;19927;-52
2022/09/21 00:34:31;;;;;;;;;;;;;;;16.36;45.26;99112.16;5057582;28;19920;-51
2022/09/21 00:36:56;;;;;;;;;;;;;;;16.57;45.25;99106.28;5075461;28;20308;-51
2022/09/21 00:39:22;;;;;;;;;;;;;;;16.56;44.41;99110.00;5075437;28;19917;-52
2022/09/21 00:41:52;;;;;;;;;;;;;;;16.50;44.09;99116.22;5075378;28;19921;-51
2022/09/21 00:44:27;;;;;;;;;;;;;;;16.48;44.84;99115.63;5075357;28;19916;-51
2022/09/21 00:46:54;;;;;;;;;;;;;;;16.63;45.06;99111.72;5075181;28;19918;-50
2022/09/21 00:49:20;;;;;;;;;;;;;;;16.60;45.04;99120.13;5075235;28;20008;-50
2022/09/21 00:51:47;;;;;;;;;;;;;;;16.62;45.42;99112.75;5057179;28;20010;-52
2022/09/21 00:54:15;;;;;;;;;;;;;;;16.73;45.51;99114.63;5075173;28;20386;-52
2022/09/21 00:56:42;;;;;;;;;;;;;;;16.68;44.79;99109.19;5075111;28;19993;-51
2022/09/21 00:59:08;;;;;;;;;;;;;;;16.37;44.64;99108.47;5057096;28;20406;-51
2022/09/21 01:01:37;;;;;;;;;;;;;;;16.13;45.35;99105.75;5057070;28;20396;-51
2022/09/21 01:04:02;;;;;;;;;;;;;;;16.09;45.48;99109.88;5075007;28;19924;-51
2022/09/21 01:06:28;;;;;;;;;;;;;;;15.90;45.10;99118.94;5074864;28;19916;-50
2022/09/21 01:08:58;;;;;;;;;;;;;;;15.72;46.41;99111.78;5074820;28;19970;-51
2022/09/21 01:11:42;;;;;;;;;;;;;;;15.73;46.26;99116.88;5074854;28;19965;-51
2022/09/21 01:14:19;;;;;;;;;;;;;;;15.83;46.68;99105.75;5074757;28;19970;-51
2022/09/21 01:17:14;;;;;;;;;;;;;;;16.07;46.00;99109.28;5056745;28;19966;-52
2022/09/21 01:19:43;;;;;;;;;;;;;;;15.92;45.46;99101.78;5061167;28;19920;-52
2022/09/21 01:22:19;;;;;;;;;;;;;;;15.74;45.47;99105.28;5056656;28;20344;-51
2022/09/21 01:24:57;;;;;;;;;;;;;;;15.57;45.50;99105.06;5056712;28;20302;-51
2022/09/21 01:28:00;;;;;;;;;;;;;;;15.43;45.64;99108.88;5074490;28;19925;-51
2022/09/21 01:30:29;;;;;;;;;;;;;;;15.35;45.80;99107.34;5011378;28;19925;-51
2022/09/21 01:33:07;;;;;;;;;;;;;;;15.27;46.04;99117.41;5012654;28;19918;-52
2022/09/21 01:35:37;;;;;;;;;;;;;;;15.21;46.15;99112.97;5012382;28;19917;-51
2022/09/21 01:38:06;;;;;;;;;;;;;;;15.25;46.34;99107.06;5012456;28;19957;-52
2022/09/21 01:40:34;;;;;;;;;;;;;;;15.29;46.36;99107.41;4995946;28;19918;-51
2022/09/21 01:43:01;;;;;;;;;;;;;;;15.24;46.37;99109.91;5012329;28;20391;-51
2022/09/21 01:45:30;;;;;;;;;;;;;;;15.14;46.55;99121.00;4995799;28;19932;-51
2022/09/21 01:47:58;;;;;;;;;;;;;;;15.16;47.05;99114.44;5012196;28;19918;-51
2022/09/21 01:50:26;;;;;;;;;;;;;;;15.35;48.25;99112.63;5012128;28;19924;-51
2022/09/21 01:52:57;;;;;;;;;;;;;;;15.52;48.12;99110.19;5012217;28;20387;-52
2022/09/21 01:55:50;;;;;;;;;;;;;;;15.62;47.67;99107.03;5012034;28;19917;-51
2022/09/21 01:58:19;;;;;;;;;;;;;;;15.62;47.86;99104.38;5008666;28;20342;-51
2022/09/21 02:00:47;;;;;;;;;;;;;;;15.58;48.16;99106.66;5031861;28;20293;-51
2022/09/21 02:03:21;;;;;;;;;;;;;;;15.57;47.53;99099.75;5073836;28;19920;-50
2022/09/21 02:05:47;;;;;;;;;;;;;;;15.43;47.28;99094.84;5073894;28;19920;-51
2022/09/21 02:08:12;;;;;;;;;;;;;;;15.17;47.14;99096.75;5073767;28;20385;-51
2022/09/21 02:10:47;;;;;;;;;;;;;;;14.90;47.57;99101.50;5073743;28;20393;-51
2022/09/21 02:13:15;;;;;;;;;;;;;;;14.72;47.88;99089.88;5073675;28;19978;-51
2022/09/21 02:15:53;;;;;;;;;;;;;;;14.54;47.96;99081.88;5073663;28;19927;-51
2022/09/21 02:18:19;;;;;;;;;;;;;;;14.44;48.13;99086.84;5073902;28;19924;-51
2022/09/21 02:20:48;;;;;;;;;;;;;;;14.39;48.03;99085.66;5073497;28;20407;-51
2022/09/21 02:23:21;;;;;;;;;;;;;;;14.33;48.30;99093.63;5073463;28;19920;-50
2022/09/21 02:25:46;;;;;;;;;;;;;;;14.29;48.63;99084.53;5073774;28;19920;-51
2022/09/21 02:28:32;;;;;;;;;;;;;;;14.24;48.66;99090.44;5073308;28;20436;-51
2022/09/21 02:31:04;;;;;;;;;;;;;;;14.11;48.76;99087.91;5054708;28;19920;-51
2022/09/21 02:33:35;;;;;;;;;;;;;;;14.04;49.12;99087.13;5073393;28;19924;-52
2022/09/21 02:36:04;;;;;;;;;;;;;;;13.95;49.25;99086.56;5055358;28;20430;-51
2022/09/21 02:38:45;;;;;;;;;;;;;;;13.91;49.59;99090.66;5073475;28;19959;-52
2022/09/21 02:41:15;;;;;;;;;;;;;;;13.88;49.52;99086.59;5073016;28;19924;-51
2022/09/21 02:43:50;;;;;;;;;;;;;;;13.82;49.57;99091.91;5055124;28;19927;-51
2022/09/21 02:46:24;;;;;;;;;;;;;;;13.73;49.78;99084.25;5073105;28;19967;-50
2022/09/21 02:48:55;;;;;;;;;;;;;;;13.64;50.08;99082.84;5055065;28;19927;-51
2022/09/21 02:51:24;;;;;;;;;;;;;;;13.55;49.86;99081.50;5072988;28;19973;-51
2022/09/21 02:53:52;;;;;;;;;;;;;;;13.49;50.37;99082.34;5054979;28;19916;-51
2022/09/21 02:56:18;;;;;;;;;;;;;;;13.47;50.65;99087.81;5073356;28;19921;-50
2022/09/21 02:58:49;;;;;;;;;;;;;;;13.47;50.91;99087.00;5072777;28;20409;-51
2022/09/21 03:01:16;;;;;;;;;;;;;;;13.40;50.92;99087.03;5054848;28;20011;-51
2022/09/21 03:03:42;;;;;;;;;;;;;;;13.37;51.19;99080.34;5072721;28;19948;-51
2022/09/21 03:06:10;;;;;;;;;;;;;;;13.37;51.55;99085.59;5054760;28;19955;-51
2022/09/21 03:08:35;;;;;;;;;;;;;;;13.31;51.83;99085.66;5054693;28;20397;-51
2022/09/21 03:11:01;;;;;;;;;;;;;;;13.31;51.77;99088.28;5072549;28;19952;-50
2022/09/21 03:13:27;;;;;;;;;;;;;;;13.35;51.79;99090.28;5072603;28;19916;-51
2022/09/21 03:16:00;;;;;;;;;;;;;;;13.33;51.97;99088.88;5072550;28;19921;-51
2022/09/21 03:18:25;;;;;;;;;;;;;;;13.28;51.77;99083.38;5054559;28;19950;-51
2022/09/21 03:20:51;;;;;;;;;;;;;;;13.25;51.84;99087.25;5054499;28;19975;-51
2022/09/21 03:23:16;;;;;;;;;;;;;;;13.27;52.29;99089.69;5072415;28;19939;-51
2022/09/21 03:25:45;;;;;;;;;;;;;;;13.25;52.30;99084.59;5072411;28;19950;-51
2022/09/21 03:28:12;;;;;;;;;;;;;;;13.23;52.01;99080.56;5072301;28;20019;-51
2022/09/21 03:30:38;;;;;;;;;;;;;;;13.17;51.92;99084.84;5072026;28;20481;-51
2022/09/21 03:33:04;;;;;;;;;;;;;;;13.11;52.27;99088.31;5072571;28;20023;-52
2022/09/21 03:35:32;;;;;;;;;;;;;;;13.07;52.16;99089.72;5072334;28;20011;-51
2022/09/21 03:37:58;;;;;;;;;;;;;;;13.09;52.44;99085.06;5072338;28;19917;-51
2022/09/21 03:40:25;;;;;;;;;;;;;;;13.10;52.51;99095.41;5072222;28;19917;-51
2022/09/21 03:42:51;;;;;;;;;;;;;;;13.13;52.39;99083.63;5072244;28;19924;-50
2022/09/21 03:45:16;;;;;;;;;;;;;;;13.10;52.39;99084.03;5072146;28;19917;-49
2022/09/21 03:47:42;;;;;;;;;;;;;;;13.10;52.58;99084.88;5072078;28;20393;-51
2022/09/21 03:50:08;;;;;;;;;;;;;;;13.08;52.59;99084.25;5072103;28;20390;-51
2022/09/21 03:52:35;;;;;;;;;;;;;;;13.11;53.06;99090.94;5053838;28;19928;-51
2022/09/21 03:55:02;;;;;;;;;;;;;;;13.12;53.21;99097.81;5071786;28;19921;-51
2022/09/21 03:57:27;;;;;;;;;;;;;;;13.14;52.67;99101.88;5072060;28;19923;-51
2022/09/21 03:59:53;;;;;;;;;;;;;;;13.23;53.10;99089.28;5072059;28;19917;-51
2022/09/21 04:02:19;;;;;;;;;;;;;;;13.29;53.35;99091.13;5071958;28;20305;-51
2022/09/21 04:04:44;;;;;;;;;;;;;;;13.50;53.14;99094.47;5071959;28;19947;-52
2022/09/21 04:07:09;;;;;;;;;;;;;;;13.70;53.27;99099.69;5071901;28;19955;-51
2022/09/21 04:09:35;;;;;;;;;;;;;;;13.83;52.58;99096.97;5053939;28;19943;-51
2022/09/21 04:12:00;;;;;;;;;;;;;;;13.89;52.25;99104.06;5071868;28;19920;-51
2022/09/21 04:14:26;;;;;;;;;;;;;;;13.84;52.21;99105.69;5071924;28;19923;-51
2022/09/21 04:16:51;;;;;;;;;;;;;;;13.76;52.01;99099.66;5071860;28;20297;-51
2022/09/21 04:19:17;;;;;;;;;;;;;;;13.54;52.02;99093.03;5071849;28;19923;-50
2022/09/21 04:21:43;;;;;;;;;;;;;;;13.38;52.42;99097.78;5071822;28;19916;-51
2022/09/21 04:24:08;;;;;;;;;;;;;;;13.28;52.62;99102.66;5053807;28;19991;-51
2022/09/21 04:26:34;;;;;;;;;;;;;;;13.24;53.06;99098.00;5071815;28;20424;-51
2022/09/21 04:29:00;;;;;;;;;;;;;;;13.17;52.91;99098.81;5053657;28;20446;-51
2022/09/21 04:31:29;;;;;;;;;;;;;;;13.12;52.96;99103.09;5053503;28;19920;-51
2022/09/21 04:33:55;;;;;;;;;;;;;;;13.08;53.44;99104.50;5071703;28;19923;-51
2022/09/21 04:36:22;;;;;;;;;;;;;;;13.03;53.59;99109.59;5071939;28;19924;-51
2022/09/21 04:38:47;;;;;;;;;;;;;;;12.94;53.65;99109.81;5071659;28;19916;-51
2022/09/21 04:41:13;;;;;;;;;;;;;;;12.96;53.60;99110.44;5053621;28;19922;-51
2022/09/21 04:43:46;;;;;;;;;;;;;;;12.99;53.49;99103.94;5071881;28;20386;-51
2022/09/21 04:46:13;;;;;;;;;;;;;;;13.01;53.64;99106.38;5071539;28;19917;-51
2022/09/21 04:48:39;;;;;;;;;;;;;;;13.05;53.38;99113.66;5071545;28;19923;-50
2022/09/21 04:51:08;;;;;;;;;;;;;;;12.99;53.97;99104.72;5071828;28;20003;-51
2022/09/21 04:53:34;;;;;;;;;;;;;;;13.15;53.83;99107.94;5053517;28;20357;-52
2022/09/21 04:56:00;;;;;;;;;;;;;;;13.31;54.31;99101.47;5053384;28;20015;-51
2022/09/21 04:58:25;;;;;;;;;;;;;;;13.52;53.37;99110.91;5071499;28;19964;-51
2022/09/21 05:00:53;;;;;;;;;;;;;;;13.60;53.47;99110.66;5053492;28;19960;-51
2022/09/21 05:03:19;;;;;;;;;;;;;;;13.72;53.18;99113.47;5071477;28;20019;-49
2022/09/21 05:05:49;;;;;;;;;;;;;;;13.79;53.01;99117.69;5072786;28;20358;-49
2022/09/21 05:08:15;;;;;;;;;;;;;;;13.83;52.94;99118.09;5056838;28;20016;-51
2022/09/21 05:10:40;;;;;;;;;;;;;;;13.91;52.74;99124.97;5074906;28;20023;-49
2022/09/21 05:13:05;;;;;;;;;;;;;;;13.95;52.45;99132.22;5074845;28;19921;-49
2022/09/21 05:15:31;;;;;;;;;;;;;;;13.94;52.21;99127.16;5056821;28;19916;-49
2022/09/21 05:17:56;;;;;;;;;;;;;;;13.82;52.34;99123.56;5074785;28;19916;-51
2022/09/21 05:20:22;;;;;;;;;;;;;;;13.77;52.57;99127.66;5074710;28;19923;-51
2022/09/21 05:22:47;;;;;;;;;;;;;;;13.85;52.55;99131.06;5056742;28;19923;-50
2022/09/21 05:25:13;;;;;;;;;;;;;;;13.93;52.31;99130.81;5056679;28;19916;-50
2022/09/21 05:27:38;;;;;;;;;;;;;;;13.99;52.20;99129.97;5074593;28;20381;-49
2022/09/21 05:30:04;;;;;;;;;;;;;;;14.01;52.00;99127.13;5074360;28;20275;-50
2022/09/21 05:32:56;;;;;;;;;;;;;;;14.02;52.33;99134.81;5056515;28;19917;-49
2022/09/21 05:35:34;;;;;;;;;;;;;;;14.09;52.04;99135.59;5074451;28;19920;-50
2022/09/21 05:38:26;;;;;;;;;;;;;;;14.26;51.98;99127.97;5074413;28;19927;-48
2022/09/21 05:40:52;;;;;;;;;;;;;;;14.67;51.38;99131.16;5071200;28;20018;-50
2022/09/21 05:43:18;;;;;;;;;;;;;;;15.04;50.58;99132.06;5074546;28;19927;-49
2022/09/21 05:45:45;;;;;;;;;;;;;;;15.31;49.72;99143.19;5074266;28;19917;-50
2022/09/21 05:48:18;;;;;;;;;;;;;;;15.61;49.16;99134.50;5074121;28;20397;-50
2022/09/21 05:51:05;;;;;;;;;;;;;;;15.82;48.22;99132.47;5074064;28;19939;-50
2022/09/21 05:53:57;;;;;;;;;;;;;;;15.86;47.32;99131.78;5074156;28;19920;-49
2022/09/21 05:56:42;;;;;;;;;;;;;;;15.54;48.12;99139.06;5056124;28;19917;-50
2022/09/21 05:59:10;;;;;;;;;;;;;;;15.30;48.64;99146.06;5073987;28;19917;-50
2022/09/21 06:01:52;;;;;;;;;;;;;;;15.12;48.78;99141.56;5073985;28;19924;-50
2022/09/21 06:04:18;;;;;;;;;;;;;;;15.01;49.39;99147.53;5074183;28;20046;-50
2022/09/21 06:06:43;;;;;;;;;;;;;;;14.90;49.40;99152.53;5073821;28;19980;-49
2022/09/21 06:09:08;;;;;;;;;;;;;;;14.94;49.91;99145.78;5055771;28;20013;-49
2022/09/21 06:11:34;;;;;;;;;;;;;;;15.48;49.68;99150.53;5073774;28;20383;-49
2022/09/21 06:14:01;;;;;;;;;;;;;;;16.22;48.50;99145.13;5073654;28;19928;-48
2022/09/21 06:16:35;;;;;;;;;;;;;;;16.87;47.17;99149.69;5073080;28;19916;-48
2022/09/21 06:19:00;;;;;;;;;;;;;;;17.49;45.99;99147.34;5073629;28;19985;-49
2022/09/21 06:21:26;;;;;;;;;;;;;;;18.26;44.30;99140.06;5055553;28;20429;-49
2022/09/21 06:23:51;;;;;;;;;;;;;;;18.42;42.57;99144.56;5073471;28;20003;-49
2022/09/21 06:26:17;;;;;;;;;;;;;;;18.54;43.14;99142.66;5073439;28;20034;-49
2022/09/21 06:28:42;;;;;;;;;;;;;;;19.15;42.96;99136.66;5073320;28;19923;-50
2022/09/21 06:31:08;;;;;;;;;;;;;;;19.55;41.84;99140.91;5073159;28;20001;-47
2022/09/21 06:33:34;;;;;;;;;;;;;;;19.54;41.36;99150.75;5073304;28;19924;-47
2022/09/21 06:36:00;;;;;;;;;;;;;;;19.59;41.17;99143.88;5073123;28;19916;-47
2022/09/21 06:38:26;;;;;;;;;;;;;;;19.75;40.79;99145.69;5073235;28;19917;-47
2022/09/21 06:40:53;;;;;;;;;;;;;;;20.18;40.08;99148.53;5073080;28;19966;-49
2022/09/21 06:43:18;;;;;;;;;;;;;;;20.49;40.18;99145.09;5055164;28;19917;-48
2022/09/21 06:45:51;;;;;;;;;;;;;;;21.03;39.11;99136.19;5073005;28;20003;-48
2022/09/21 06:48:16;;;;;;;;;;;;;;;21.33;36.90;99130.22;5054987;28;19920;-47
2022/09/21 06:50:42;;;;;;;;;;;;;;;21.06;36.76;99137.53;5072976;28;19923;-48
2022/09/21 06:53:07;;;;;;;;;;;;;;;21.11;36.40;99137.56;5072890;28;19916;-48
2022/09/21 06:55:33;;;;;;;;;;;;;;;21.73;35.49;99136.81;5072831;28;19981;-49
2022/09/21 06:58:02;;;;;;;;;;;;;;;22.17;34.43;99135.56;5072856;28;19964;-49
2022/09/21 07:00:27;;;;;;;;;;;;;;;22.62;34.07;99135.91;5054839;28;19917;-46
2022/09/21 07:02:53;;;;;;;;;;;;;;;23.01;32.66;99136.09;5054797;28;19916;-48
2022/09/21 07:05:21;;;;;;;;;;;;;;;23.42;32.03;99138.72;5072951;28;19916;-47
2022/09/21 07:07:47;;;;;;;;;;;;;;;23.80;31.61;99132.91;5054592;28;20408;-47
2022/09/21 07:10:12;;;;;;;;;;;;;;;24.12;30.94;99127.09;5054684;28;20010;-47
2022/09/21 07:12:38;;;;;;;;;;;;;;;24.57;30.59;99130.56;5072612;28;19946;-48
2022/09/21 07:15:04;;;;;;;;;;;;;;;24.79;30.19;99131.94;5072593;28;20394;-49
2022/09/21 07:17:34;;;;;;;;;;;;;;;24.84;30.70;99119.28;5054633;28;19966;-47
2022/09/21 07:20:00;;;;;;;;;;;;;;;25.05;29.79;99121.75;5054563;28;19917;-49
2022/09/21 07:22:30;;;;;;;;;;;;;;;25.34;29.11;99116.34;5072508;28;19916;-49
2022/09/21 07:24:56;;;;;;;;;;;;;;;25.45;28.64;99122.41;5054374;28;20393;-50
2022/09/21 07:27:23;;;;;;;;;;;;;;;25.71;28.55;99117.50;5072024;28;19917;-50
2022/09/21 07:29:48;;;;;;;;;;;;;;;25.89;28.08;99124.75;5072013;28;19921;-48
2022/09/21 07:32:13;;;;;;;;;;;;;;;26.12;27.92;99122.34;5050868;28;19921;-48
2022/09/21 07:34:39;;;;;;;;;;;;;;;25.78;27.99;99125.22;5052363;28;19923;-50
2022/09/21 07:37:04;;;;;;;;;;;;;;;25.44;28.62;99126.97;5052275;28;19917;-49
2022/09/21 07:39:30;;;;;;;;;;;;;;;25.67;28.08;99121.84;5051033;28;19971;-49
2022/09/21 07:41:57;;;;;;;;;;;;;;;26.10;27.72;99133.38;5052229;28;20351;-50
2022/09/21 07:44:23;;;;;;;;;;;;;;;26.36;27.75;99121.41;5052106;28;20058;-47
2022/09/21 07:46:48;;;;;;;;;;;;;;;26.29;27.61;99125.28;5052117;28;20023;-50
2022/09/21 07:49:13;;;;;;;;;;;;;;;26.43;27.70;99122.63;5052112;28;20020;-47
2022/09/21 07:51:39;;;;;;;;;;;;;;;26.97;26.95;99128.47;5052100;28;19982;-47
2022/09/21 07:54:05;;;;;;;;;;;;;;;27.14;26.62;99133.25;5052081;28;19924;-49
2022/09/21 07:56:30;;;;;;;;;;;;;;;27.29;26.33;99130.31;5052324;28;19924;-48
2022/09/21 07:59:05;;;;;;;;;;;;;;;27.49;25.94;99125.59;5052045;28;20314;-49
2022/09/21 08:01:31;;;;;;;;;;;;;;;27.94;25.72;99119.53;5052127;28;19917;-47
2022/09/21 08:03:57;;;;;;;;;;;;;;;28.16;25.37;99132.25;5052219;28;20070;-47
2022/09/21 08:06:23;;;;;;;;;;;;;;;28.18;25.16;99133.53;5051902;28;19959;-50
2022/09/21 08:08:49;;;;;;;;;;;;;;;28.47;25.37;99125.00;5051896;28;19924;-48
2022/09/21 08:11:15;;;;;;;;;;;;;;;28.84;24.57;99127.63;5051920;28;19950;-49
2022/09/21 08:13:41;;;;;;;;;;;;;;;29.15;24.16;99122.19;5051917;28;20015;-49
2022/09/21 08:16:07;;;;;;;;;;;;;;;29.38;23.91;99117.50;5067249;28;20008;-50
2022/09/21 08:18:35;;;;;;;;;;;;;;;29.47;23.50;99118.31;5051861;28;20007;-50
2022/09/21 08:21:00;;;;;;;;;;;;;;;29.32;23.95;99113.34;5050462;28;19967;-49
2022/09/21 08:23:29;;;;;;;;;;;;;;;29.41;24.17;99124.19;5051864;28;19944;-47
2022/09/21 08:26:01;;;;;;;;;;;;;;;29.54;24.13;99117.88;5051750;28;19916;-48
2022/09/21 08:28:27;;;;;;;;;;;;;;;29.58;23.67;99113.41;5051663;28;19921;-50
2022/09/21 08:30:53;;;;;;;;;;;;;;;29.66;23.78;99118.03;5058669;28;19943;-49
2022/09/21 08:33:18;;;;;;;;;;;;;;;29.32;23.64;99126.06;5053799;28;19916;-51
2022/09/21 08:35:53;;;;;;;;;;;;;;;29.32;24.20;99128.75;5053753;28;20241;-48
2022/09/21 08:38:19;;;;;;;;;;;;;;;30.02;23.79;99126.97;5071723;28;19920;-49
2022/09/21 08:40:45;;;;;;;;;;;;;;;30.55;23.65;99120.44;5074692;28;19939;-48
2022/09/21 08:43:13;;;;;;;;;;;;;;;31.06;22.81;99121.38;5075408;28;19920;-50
2022/09/21 08:45:43;;;;;;;;;;;;;;;31.26;22.31;99125.25;5075369;28;19999;-48
2022/09/21 08:48:17;;;;;;;;;;;;;;;31.43;22.06;99124.38;5075278;28;20381;-48
2022/09/21 08:50:53;;;;;;;;;;;;;;;31.37;22.04;99120.28;5075243;28;19954;-48
2022/09/21 08:53:20;;;;;;;;;;;;;;;31.87;21.93;99115.94;5075223;28;19923;-50
2022/09/21 08:55:46;;;;;;;;;;;;;;;32.16;21.19;99117.03;5075056;28;19916;-49
2022/09/21 08:58:17;;;;;;;;;;;;;;;32.48;21.21;99120.88;5075150;28;19916;-48
2022/09/21 09:00:43;;;;;;;;;;;;;;;32.75;21.09;99114.03;5075071;28;20294;-50
2022/09/21 09:03:14;;;;;;;;;;;;;;;32.50;20.73;99112.34;5075057;28;19916;-50
2022/09/21 09:05:54;;;;;;;;;;;;;;;32.31;20.73;99110.94;5057098;28;19924;-52
2022/09/21 09:08:39;;;;;;;;;;;;;;;31.95;20.71;99108.88;5075028;28;19964;-50
2022/09/21 09:11:05;;;;;;;;;;;;;;;31.95;20.97;99108.88;5056936;28;19920;-50
2022/09/21 09:13:39;;;;;;;;;;;;;;;31.84;20.78;99108.50;5056955;28;19927;-49
2022/09/21 09:16:10;;;;;;;;;;;;;;;31.32;20.96;99111.53;5056832;28;19924;-50
2022/09/21 09:18:36;;;;;;;;;;;;;;;30.45;21.60;99112.66;5074767;28;19920;-47
2022/09/21 09:21:04;;;;;;;;;;;;;;;30.27;21.92;99106.44;5074713;28;19920;-48
2022/09/21 09:23:36;;;;;;;;;;;;;;;30.31;22.11;99109.31;5074759;28;19916;-49
2022/09/21 09:26:11;;;;;;;;;;;;;;;30.40;22.20;99099.25;5056814;28;19920;-49
2022/09/21 09:28:37;;;;;;;;;;;;;;;30.02;22.50;99094.50;5074549;28;20013;-50
2022/09/21 09:31:08;;;;;;;;;;;;;;;30.03;22.63;99102.31;5074402;28;19959;-48
2022/09/21 09:33:52;;;;;;;;;;;;;;;30.00;22.26;99099.44;5074574;28;19966;-49
2022/09/21 09:36:17;;;;;;;;;;;;;;;29.96;22.69;99101.19;5074358;28;20030;-50
2022/09/21 09:39:01;;;;;;;;;;;;;;;30.46;22.69;99097.97;5056498;28;20019;-50
2022/09/21 09:41:42;;;;;;;;;;;;;;;31.22;22.10;99102.63;5074372;28;19940;-50
2022/09/21 09:44:28;;;;;;;;;;;;;;;31.81;21.41;99099.09;5074332;28;19979;-51
2022/09/21 09:46:56;;;;;;;;;;;;;;;31.95;20.48;99096.06;5073782;28;20058;-50
2022/09/21 09:49:22;;;;;;;;;;;;;;;32.22;20.65;99093.97;5056217;28;20007;-49
2022/09/21 09:51:47;;;;;;;;;;;;;;;32.36;20.50;99105.31;5055301;28;20397;-49
2022/09/21 09:54:14;;;;;;;;;;;;;;;32.66;20.06;99085.34;5074054;28;19921;-50
2022/09/21 09:56:40;;;;;;;;;;;;;;;32.90;20.13;99084.59;5056025;28;19923;-50
2022/09/21 09:59:11;;;;;;;;;;;;;;;33.27;19.88;99088.13;5073989;28;20334;-50
2022/09/21 10:01:41;;;;;;;;;;;;;;;33.68;19.66;99080.00;5074046;28;19916;-50
2022/09/21 10:04:11;;;;;;;;;;;;;;;33.87;19.43;99082.91;5073929;28;19916;-49
2022/09/21 10:06:38;;;;;;;;;;;;;;;33.63;19.29;99076.38;5073871;28;19966;-49
2022/09/21 10:09:22;;;;;;;;;;;;;;;33.50;19.60;99069.34;5073659;28;19920;-50
2022/09/21 10:11:48;;;;;;;;;;;;;;;32.64;19.96;99083.78;5073709;28;19943;-49
2022/09/21 10:14:17;;;;;;;;;;;;;;;33.06;19.92;99090.91;5073799;28;20394;-49
2022/09/21 10:16:43;;;;;;;;;;;;;;;33.39;19.76;99088.09;5073679;28;19948;-49
2022/09/21 10:19:18;;;;;;;;;;;;;;;33.57;19.99;99076.94;5055730;28;20370;-48
2022/09/21 10:21:45;;;;;;;;;;;;;;;33.96;19.00;99086.25;5055626;28;20340;-49
2022/09/21 10:24:25;;;;;;;;;;;;;;;33.82;18.92;99080.41;5073428;28;19963;-49
2022/09/21 10:27:14;;;;;;;;;;;;;;;33.97;19.00;99082.41;5073371;28;19920;-49
2022/09/21 10:29:41;;;;;;;;;;;;;;;34.64;19.00;99075.59;5047480;28;19916;-48
2022/09/21 10:32:13;;;;;;;;;;;;;;;34.79;18.48;99077.53;5055209;28;19931;-48
2022/09/21 10:34:58;;;;;;;;;;;;;;;34.95;18.23;99069.31;5073353;28;19920;-48
2022/09/21 10:37:28;;;;;;;;;;;;;;;34.95;18.30;99074.78;5072987;28;20388;-50
2022/09/21 10:39:54;;;;;;;;;;;;;;;35.10;18.06;99073.97;5073246;28;19963;-50
2022/09/21 10:42:20;;;;;;;;;;;;;;;34.51;17.90;99069.41;5073106;28;20390;-49
2022/09/21 10:44:45;;;;;;;;;;;;;;;34.09;18.14;99072.56;5073361;28;19986;-50
2022/09/21 10:47:29;;;;;;;;;;;;;;;33.84;18.38;99069.97;5073005;28;19942;-50
2022/09/21 10:49:56;;;;;;;;;;;;;;;33.78;18.30;99069.41;5072982;28;19917;-48
2022/09/21 10:52:38;;;;;;;;;;;;;;;33.82;18.51;99074.97;5072975;28;19917;-49
2022/09/21 10:55:03;;;;;;;;;;;;;;;33.76;18.69;99070.91;5072960;28;20003;-50
2022/09/21 10:57:32;;;;;;;;;;;;;;;33.72;18.46;99070.00;5072940;28;19959;-49
2022/09/21 10:59:58;;;;;;;;;;;;;;;33.38;18.73;99074.81;5072861;28;20289;-49
2022/09/21 11:02:33;;;;;;;;;;;;;;;33.01;18.74;99070.19;5072739;28;19921;-48
2022/09/21 11:05:17;;;;;;;;;;;;;;;33.02;18.85;99068.25;5072781;28;20014;-49
2022/09/21 11:07:48;;;;;;;;;;;;;;;33.22;19.19;99070.09;5072605;28;19917;-50
2022/09/21 11:10:26;;;;;;;;;;;;;;;33.44;19.03;99073.44;5054749;28;19939;-49
2022/09/21 11:12:55;;;;;;;;;;;;;;;33.53;19.13;99065.97;5072696;28;19969;-49
2022/09/21 11:15:32;;;;;;;;;;;;;;;33.45;19.20;99061.44;5072589;28;19920;-50
2022/09/21 11:18:03;;;;;;;;;;;;;;;33.32;19.20;99057.16;5072608;28;20019;-50
2022/09/21 11:20:32;;;;;;;;;;;;;;;33.33;18.89;99070.41;5072571;28;20009;-49
2022/09/21 11:23:13;;;;;;;;;;;;;;;33.11;19.06;99060.81;5072675;28;20314;-48
2022/09/21 11:25:45;;;;;;;;;;;;;;;33.17;18.89;99066.81;5072458;28;20348;-48
2022/09/21 11:28:14;;;;;;;;;;;;;;;32.77;19.47;99062.84;5072271;28;19920;-50
2022/09/21 11:30:48;;;;;;;;;;;;;;;32.65;19.81;99062.81;5072044;28;19931;-50
2022/09/21 11:33:22;;;;;;;;;;;;;;;32.86;19.40;99062.75;5072328;28;19923;-49
2022/09/21 11:35:54;;;;;;;;;;;;;;;32.98;19.05;99061.91;5054330;28;19998;-50
2022/09/21 11:38:19;;;;;;;;;;;;;;;32.83;18.79;99066.13;5072321;28;19942;-50
2022/09/21 11:41:05;;;;;;;;;;;;;;;33.07;19.08;99061.81;5054251;28;19939;-50
2022/09/21 11:43:43;;;;;;;;;;;;;;;32.98;19.04;99064.63;5072195;28;19951;-50
2022/09/21 11:46:13;;;;;;;;;;;;;;;32.45;19.68;99064.47;5054360;28;19917;-50
2022/09/21 11:49:10;;;;;;;;;;;;;;;32.80;18.95;99059.44;5072052;28;19951;-49
2022/09/21 11:51:41;;;;;;;;;;;;;;;33.23;19.18;99066.25;4993786;28;19921;-49
2022/09/21 11:54:07;;;;;;;;;;;;;;;33.26;18.71;99059.31;5010251;28;20439;-50
2022/09/21 11:56:42;;;;;;;;;;;;;;;33.38;19.21;99066.66;5010202;28;19968;-49
2022/09/21 11:59:17;;;;;;;;;;;;;;;33.39;18.63;99046.50;5010343;28;20406;-50
2022/09/21 12:01:53;;;;;;;;;;;;;;;33.21;18.69;99054.91;5010195;28;20008;-50
2022/09/21 12:04:37;;;;;;;;;;;;;;;33.23;19.00;99055.34;5010272;28;20419;-49
2022/09/21 12:07:05;;;;;;;;;;;;;;;33.32;18.74;99057.94;5010165;28;20391;-48
2022/09/21 12:09:43;;;;;;;;;;;;;;;33.17;18.31;99050.50;5010039;28;20411;-48
2022/09/21 12:12:08;;;;;;;;;;;;;;;33.09;18.28;99041.31;5010120;28;19972;-48
2022/09/21 12:14:43;;;;;;;;;;;;;;;32.94;19.00;99042.78;5011267;28;19918;-48
2022/09/21 12:17:15;;;;;;;;;;;;;;;32.81;18.53;99043.94;5013978;28;20354;-49
2022/09/21 12:19:53;;;;;;;;;;;;;;;32.86;18.82;99051.06;5013927;28;20025;-48
2022/09/21 12:22:21;;;;;;;;;;;;;;;33.16;18.52;99041.56;5013985;28;20407;-48
2022/09/21 12:24:50;;;;;;;;;;;;;;;33.33;18.80;99039.72;5013993;28;19917;-49
2022/09/21 12:27:34;;;;;;;;;;;;;;;33.38;18.41;99036.72;5046654;28;19916;-48
2022/09/21 12:30:11;;;;;;;;;;;;;;;33.41;18.75;99036.84;5075717;28;20443;-48
2022/09/21 12:32:48;;;;;;;;;;;;;;;33.36;18.44;99030.84;5075994;28;20321;-48
2022/09/21 12:35:16;;;;;;;;;;;;;;;33.12;18.66;99037.13;5075898;28;19923;-49
2022/09/21 12:37:47;;;;;;;;;;;;;;;33.15;18.88;99039.97;5075590;28;19917;-47
2022/09/21 12:40:13;;;;;;;;;;;;;;;33.24;19.10;99037.09;5075511;28;19917;-47
2022/09/21 12:42:50;;;;;;;;;;;;;;;32.93;18.66;99032.25;5057472;28;19923;-49
2022/09/21 12:45:20;;;;;;;;;;;;;;;32.73;19.05;99032.03;5075437;28;20390;-49
2022/09/21 12:47:48;;;;;;;;;;;;;;;32.51;19.54;99038.66;5057390;28;19964;-49
2022/09/21 12:50:19;;;;;;;;;;;;;;;32.27;19.45;99041.34;5075250;28;20378;-48
2022/09/21 12:52:45;;;;;;;;;;;;;;;31.73;19.95;99036.72;5057381;28;19917;-50
2022/09/21 12:55:20;;;;;;;;;;;;;;;31.08;20.45;99047.84;5057261;28;19931;-50
2022/09/21 12:57:53;;;;;;;;;;;;;;;30.66;20.71;99034.16;5057254;28;19943;-49
2022/09/21 13:00:21;;;;;;;;;;;;;;;30.38;20.76;99037.28;5075231;28;19940;-50